Time;durP1;ratioP1;P1;durP2;ratioP2;P2;SDS_P1;SDS_P2;PMS_P1;PMS_P2;Temp;Humidity;BMP_temperature;BMP_pressure;BME280_temperature;BME280_humidity;BME280_pressure;Samples;Min_cycle;Max_cycle;Signal;HPM_P1;HPM_P2
2020/12/08 00:00:06;;;;;;;16.90;13.57;;;4.40;99.90;;;;;;5101446;28;20470;-88
2020/12/08 00:02:32;;;;;;;15.20;12.63;;;4.40;99.90;;;;;;5095980;28;20453;-88
2020/12/08 00:04:58;;;;;;;18.80;14.60;;;4.40;99.90;;;;;;5114058;28;20436;-88
2020/12/08 00:07:24;;;;;;;16.60;13.57;;;4.40;99.90;;;;;;5127316;28;20994;-88
2020/12/08 00:09:50;;;;;;;17.50;14.80;;;4.50;99.90;;;;;;5103252;28;20994;-87
2020/12/08 00:12:16;;;;;;;17.97;14.63;;;4.40;99.90;;;;;;5106032;28;20469;-87
2020/12/08 00:14:43;;;;;;;16.87;13.70;;;4.50;99.90;;;;;;5110017;28;20482;-88
2020/12/08 00:17:09;;;;;;;19.93;13.70;;;4.50;99.90;;;;;;5119947;28;20445;-88
2020/12/08 00:19:35;;;;;;;18.10;13.77;;;4.60;99.90;;;;;;5105209;28;20470;-88
2020/12/08 00:22:02;;;;;;;19.33;14.60;;;4.50;99.90;;;;;;5095720;28;20457;-88
2020/12/08 00:24:28;;;;;;;16.80;14.27;;;4.60;99.90;;;;;;5103883;28;20445;-88
2020/12/08 00:26:54;;;;;;;17.53;13.70;;;4.60;99.90;;;;;;5115805;28;20440;-87
2020/12/08 00:29:20;;;;;;;17.43;15.10;;;4.60;99.90;;;;;;5107553;28;20467;-87
2020/12/08 00:31:47;;;;;;;15.77;13.60;;;4.50;99.90;;;;;;5095368;28;20426;-87
2020/12/08 00:34:13;;;;;;;20.00;14.80;;;4.60;99.90;;;;;;5101549;28;20540;-87
2020/12/08 00:36:39;;;;;;;17.27;13.47;;;4.50;99.90;;;;;;5115294;28;20452;-87
2020/12/08 00:39:06;;;;;;;18.63;13.63;;;4.60;99.90;;;;;;5109504;28;20464;-87
2020/12/08 00:41:32;;;;;;;21.00;15.60;;;4.70;99.90;;;;;;5095279;28;20866;-87
2020/12/08 00:43:58;;;;;;;18.97;15.30;;;4.70;99.90;;;;;;5098500;28;20453;-87
2020/12/08 00:46:24;;;;;;;19.93;14.23;;;4.60;99.90;;;;;;5114925;28;20442;-87
2020/12/08 00:48:51;;;;;;;19.47;15.23;;;4.60;99.90;;;;;;5112172;28;20478;-87
2020/12/08 00:51:17;;;;;;;19.33;14.97;;;4.70;99.90;;;;;;5095191;28;20487;-87
2020/12/08 00:53:43;;;;;;;21.37;14.43;;;4.70;99.90;;;;;;5095543;28;20478;-87
2020/12/08 00:56:11;;;;;;;40.60;30.00;;;4.70;99.90;;;;;;5115357;28;20965;-87
2020/12/08 00:58:37;;;;;;;29.63;22.70;;;4.60;99.90;;;;;;5114014;28;20498;-87
2020/12/08 01:01:04;;;;;;;22.30;17.03;;;4.60;99.90;;;;;;5094910;28;20426;-87
2020/12/08 01:03:31;;;;;;;18.70;14.57;;;4.60;99.90;;;;;;5094913;28;20449;-87
2020/12/08 01:05:58;;;;;;;19.20;15.87;;;4.60;99.90;;;;;;5114484;28;20445;-88
2020/12/08 01:08:24;;;;;;;21.30;15.90;;;4.70;99.90;;;;;;5114723;28;21003;-88
2020/12/08 01:10:52;;;;;;;23.73;17.07;;;4.60;99.90;;;;;;5094910;28;20457;-88
2020/12/08 01:13:18;;;;;;;21.07;16.87;;;4.70;99.90;;;;;;5109409;28;20450;-88
2020/12/08 01:15:45;;;;;;;20.47;16.17;;;4.70;99.90;;;;;;5113077;28;20494;-88
2020/12/08 01:18:11;;;;;;;22.90;18.03;;;4.70;99.90;;;;;;5114995;28;20453;-87
2020/12/08 01:20:37;;;;;;;18.83;14.93;;;4.70;99.90;;;;;;5096967;28;20535;-88
2020/12/08 01:23:04;;;;;;;18.57;14.70;;;4.70;99.90;;;;;;5097676;28;20423;-87
2020/12/08 01:25:31;;;;;;;23.17;18.50;;;4.70;99.90;;;;;;5126524;28;20441;-87
2020/12/08 01:27:58;;;;;;;21.67;16.97;;;4.70;99.90;;;;;;5123364;28;20442;-88
2020/12/08 01:30:24;;;;;;;22.70;16.80;;;4.70;99.90;;;;;;5124162;28;20521;-86
2020/12/08 01:32:50;;;;;;;23.00;17.60;;;4.70;99.90;;;;;;5131089;27;20425;-88
2020/12/08 01:35:17;;;;;;;19.77;15.40;;;4.70;99.90;;;;;;5121319;27;20531;-88
2020/12/08 01:37:44;;;;;;;23.40;17.00;;;4.70;99.90;;;;;;5094833;28;20447;-87
2020/12/08 01:40:11;;;;;;;21.73;16.60;;;4.70;99.90;;;;;;5106896;28;20513;-88
2020/12/08 01:42:37;;;;;;;20.33;16.07;;;4.70;99.90;;;;;;5114348;28;20443;-87
2020/12/08 01:45:03;;;;;;;23.97;17.43;;;4.70;99.90;;;;;;5101583;27;20950;-88
2020/12/08 01:47:30;;;;;;;22.97;16.27;;;4.60;99.90;;;;;;5094076;28;20447;-88
2020/12/08 01:49:56;;;;;;;24.33;17.50;;;4.60;99.90;;;;;;5104202;28;20533;-88
2020/12/08 01:52:22;;;;;;;25.93;17.57;;;4.50;99.90;;;;;;5114374;28;20490;-87
2020/12/08 01:54:50;;;;;;;22.93;17.40;;;4.50;99.90;;;;;;5112173;28;20480;-88
2020/12/08 01:57:18;;;;;;;26.83;18.43;;;4.40;99.90;;;;;;5114002;28;20452;-88
2020/12/08 01:59:44;;;;;;;21.67;17.30;;;4.50;99.90;;;;;;5105406;27;20516;-88
2020/12/08 02:02:10;;;;;;;24.67;18.03;;;4.40;99.90;;;;;;5094494;28;20468;-88
2020/12/08 02:04:37;;;;;;;21.87;15.80;;;4.40;99.90;;;;;;5101637;28;20499;-88
2020/12/08 02:07:03;;;;;;;24.50;17.33;;;4.40;99.90;;;;;;5115752;28;20435;-87
2020/12/08 02:09:30;;;;;;;25.47;18.23;;;4.40;99.90;;;;;;5107916;27;20481;-88
2020/12/08 02:11:56;;;;;;;22.40;17.33;;;4.30;99.90;;;;;;5093152;28;20449;-88
2020/12/08 02:14:23;;;;;;;25.53;17.40;;;4.40;99.90;;;;;;5098567;28;20480;-89
2020/12/08 02:16:49;;;;;;;26.53;18.73;;;4.20;99.90;;;;;;5113834;28;20430;-88
2020/12/08 02:19:16;;;;;;;24.67;18.07;;;4.20;99.90;;;;;;5118661;28;20465;-88
2020/12/08 02:21:43;;;;;;;29.70;19.70;;;4.10;99.90;;;;;;5123995;28;20442;-89
2020/12/08 02:24:09;;;;;;;30.43;20.20;;;4.10;99.90;;;;;;5110154;28;20443;-86
2020/12/08 02:26:35;;;;;;;29.20;19.53;;;4.00;99.90;;;;;;5093339;28;20445;-86
2020/12/08 02:29:01;;;;;;;29.47;21.00;;;4.10;99.90;;;;;;5094352;28;20526;-87
2020/12/08 02:31:27;;;;;;;32.83;22.10;;;4.10;99.90;;;;;;5093098;28;20439;-88
2020/12/08 02:33:53;;;;;;;27.33;21.20;;;4.10;99.90;;;;;;5095660;28;20474;-87
2020/12/08 02:36:19;;;;;;;30.33;20.47;;;4.10;99.90;;;;;;5113250;28;20934;-87
2020/12/08 02:38:46;;;;;;;31.67;21.03;;;4.00;99.90;;;;;;5111665;28;20469;-88
2020/12/08 02:41:12;;;;;;;28.13;20.10;;;4.10;99.90;;;;;;5098725;28;20450;-87
2020/12/08 02:43:39;;;;;;;29.33;21.47;;;4.00;99.90;;;;;;5093599;28;20442;-88
2020/12/08 02:46:05;;;;;;;29.30;20.53;;;4.00;99.90;;;;;;5113171;27;20497;-88
2020/12/08 02:48:31;;;;;;;28.93;21.17;;;4.00;99.90;;;;;;5113364;28;20451;-87
2020/12/08 02:50:57;;;;;;;28.33;18.83;;;4.10;99.90;;;;;;5093538;27;20961;-88
2020/12/08 02:53:23;;;;;;;28.40;19.47;;;4.10;99.90;;;;;;5092685;28;20497;-88
2020/12/08 02:55:50;;;;;;;27.97;19.27;;;4.00;99.90;;;;;;5110081;28;20448;-88
2020/12/08 02:58:17;;;;;;;27.50;19.47;;;4.00;99.90;;;;;;5113097;28;20456;-88
2020/12/08 03:00:43;;;;;;;27.63;19.40;;;4.00;99.90;;;;;;5095875;28;20468;-88
2020/12/08 03:03:09;;;;;;;25.83;19.60;;;4.00;99.90;;;;;;5092661;28;20443;-88
2020/12/08 03:05:35;;;;;;;27.10;18.90;;;4.00;99.90;;;;;;5108859;28;20445;-87
2020/12/08 03:08:01;;;;;;;22.93;16.60;;;4.00;99.90;;;;;;5112986;28;20526;-87
2020/12/08 03:10:28;;;;;;;25.93;17.10;;;4.00;99.90;;;;;;5098121;28;20468;-87
2020/12/08 03:12:55;;;;;;;25.07;18.23;;;4.00;99.90;;;;;;5092462;28;20438;-87
2020/12/08 03:15:21;;;;;;;27.07;18.83;;;4.00;99.90;;;;;;5106556;28;20797;-87
2020/12/08 03:17:47;;;;;;;26.10;18.40;;;4.10;99.90;;;;;;5112775;28;20446;-87
2020/12/08 03:20:13;;;;;;;29.33;20.40;;;4.00;99.90;;;;;;5099937;28;20477;-87
2020/12/08 03:22:40;;;;;;;26.20;20.30;;;3.90;99.90;;;;;;5092586;28;20453;-86
2020/12/08 03:25:07;;;;;;;26.70;19.60;;;3.90;99.90;;;;;;5104612;28;20506;-87
2020/12/08 03:27:33;;;;;;;28.57;20.17;;;3.90;99.90;;;;;;5128179;28;20452;-87
2020/12/08 03:30:00;;;;;;;28.83;19.60;;;3.90;99.90;;;;;;5111021;28;20458;-87
2020/12/08 03:32:26;;;;;;;28.47;19.70;;;3.90;99.90;;;;;;5112837;28;20432;-87
2020/12/08 03:34:52;;;;;;;27.63;19.33;;;3.80;99.90;;;;;;5101134;28;20474;-87
2020/12/08 03:37:19;;;;;;;28.90;20.90;;;3.70;99.90;;;;;;5091871;28;20450;-87
2020/12/08 03:39:45;;;;;;;27.07;20.63;;;3.70;99.90;;;;;;5101636;28;20508;-88
2020/12/08 03:42:11;;;;;;;31.57;22.70;;;3.60;99.90;;;;;;5104526;28;20457;-86
2020/12/08 03:44:37;;;;;;;31.10;23.23;;;3.60;99.90;;;;;;5107225;28;20448;-88
2020/12/08 03:47:04;;;;;;;30.53;21.90;;;3.60;99.90;;;;;;5119414;28;20441;-86
2020/12/08 03:49:30;;;;;;;31.30;22.53;;;3.50;99.90;;;;;;5138745;28;20456;-88
2020/12/08 03:51:57;;;;;;;33.77;22.20;;;3.50;99.90;;;;;;5120907;28;20437;-87
2020/12/08 03:54:23;;;;;;;32.40;23.07;;;3.60;99.90;;;;;;5118014;28;20500;-87
2020/12/08 03:56:50;;;;;;;31.93;21.20;;;3.60;99.90;;;;;;5092856;28;20442;-88
2020/12/08 03:59:17;;;;;;;34.20;22.40;;;3.60;99.90;;;;;;5096199;28;20469;-86
2020/12/08 04:01:45;;;;;;;29.73;20.30;;;3.60;99.90;;;;;;5113431;28;20433;-87
2020/12/08 04:04:12;;;;;;;35.70;22.80;;;3.60;99.90;;;;;;5109361;28;20460;-87
2020/12/08 04:06:38;;;;;;;32.43;22.10;;;3.60;99.90;;;;;;5092032;28;20445;-88
2020/12/08 04:09:05;;;;;;;32.97;21.90;;;3.60;99.90;;;;;;5094363;28;20478;-87
2020/12/08 04:11:32;;;;;;;32.67;23.17;;;3.50;99.90;;;;;;5112515;28;20440;-88
2020/12/08 04:13:59;;;;;;;32.07;21.10;;;3.40;99.90;;;;;;5111115;28;20903;-88
2020/12/08 04:16:25;;;;;;;36.17;22.33;;;3.30;99.90;;;;;;5091566;28;20492;-87
2020/12/08 04:18:51;;;;;;;30.57;21.63;;;3.30;99.90;;;;;;5091935;28;20458;-88
2020/12/08 04:21:26;;;;;;;32.70;22.13;;;3.20;99.90;;;;;;5112048;28;20455;-87
2020/12/08 04:23:54;;;;;;;32.27;21.53;;;3.10;99.90;;;;;;5112426;28;20436;-87
2020/12/08 04:26:21;;;;;;;30.23;21.03;;;3.10;99.90;;;;;;5111637;28;20843;-87
2020/12/08 04:28:47;;;;;;;34.78;21.60;;;3.10;99.90;;;;;;5112756;28;20468;-87
2020/12/08 04:31:15;;;;;;;35.10;24.53;;;3.00;99.90;;;;;;5096112;28;20203;-87
2020/12/08 04:33:42;;;;;;;33.40;21.97;;;3.00;99.90;;;;;;5097922;28;20457;-87
2020/12/08 04:36:12;;;;;;;36.20;23.73;;;3.00;99.90;;;;;;5112535;28;20445;-87
2020/12/08 04:38:40;;;;;;;31.17;22.20;;;3.00;99.90;;;;;;5096365;28;20461;-86
2020/12/08 04:41:07;;;;;;;33.08;24.40;;;2.90;99.90;;;;;;5095743;28;20465;-86
2020/12/08 04:43:33;;;;;;;35.07;22.63;;;2.80;99.90;;;;;;5095764;28;20269;-87
2020/12/08 04:46:00;;;;;;;34.53;23.70;;;2.80;99.90;;;;;;5111309;28;20452;-87
2020/12/08 04:48:27;;;;;;;35.30;23.20;;;2.80;99.90;;;;;;5103554;28;20453;-87
2020/12/08 04:50:54;;;;;;;33.70;23.20;;;2.80;99.90;;;;;;5095495;28;20484;-87
2020/12/08 04:53:21;;;;;;;33.23;22.37;;;2.90;99.90;;;;;;5105395;28;20961;-87
2020/12/08 04:55:48;;;;;;;39.43;23.77;;;2.90;99.90;;;;;;5100466;27;20489;-87
2020/12/08 04:58:16;;;;;;;37.20;23.73;;;3.00;99.90;;;;;;5104156;28;20451;-87
2020/12/08 05:00:43;;;;;;;36.60;23.90;;;3.00;99.90;;;;;;5115719;27;20475;-88
2020/12/08 05:03:09;;;;;;;33.60;23.17;;;3.00;99.90;;;;;;5107897;27;20454;-87
2020/12/08 05:05:39;;;;;;;37.30;24.47;;;3.00;99.90;;;;;;5095538;28;20199;-88
2020/12/08 05:08:10;;;;;;;33.00;22.87;;;3.10;99.90;;;;;;5110633;28;20557;-89
2020/12/08 05:10:36;;;;;;;36.05;22.58;;;3.20;99.90;;;;;;5104974;28;20466;-89
2020/12/08 05:13:05;;;;;;;33.13;21.37;;;3.30;99.90;;;;;;5104676;28;20696;-88
2020/12/08 05:15:32;;;;;;;31.77;21.40;;;3.40;99.90;;;;;;5104245;28;20487;-87
2020/12/08 05:18:08;;;;;;;32.20;22.70;;;3.40;99.90;;;;;;5102490;28;20475;-87
2020/12/08 05:20:34;;;;;;;35.73;24.43;;;3.40;99.90;;;;;;5093498;28;20546;-88
2020/12/08 05:23:00;;;;;;;35.90;21.33;;;3.40;99.90;;;;;;5093095;28;20449;-88
2020/12/08 05:25:28;;;;;;;34.90;23.17;;;3.40;99.90;;;;;;5092863;28;20449;-88
2020/12/08 05:27:55;;;;;;;31.37;22.63;;;3.40;99.90;;;;;;5094854;28;20479;-87
2020/12/08 05:30:23;;;;;;;34.23;23.10;;;3.40;99.90;;;;;;5103171;28;20452;-88
2020/12/08 05:32:49;;;;;;;34.80;23.00;;;3.40;99.90;;;;;;5100384;28;20450;-87
2020/12/08 05:35:18;;;;;;;32.23;22.87;;;3.50;99.90;;;;;;5103310;28;21016;-88
2020/12/08 05:37:46;;;;;;;32.97;23.00;;;3.60;99.90;;;;;;5104145;28;20448;-87
2020/12/08 05:40:13;;;;;;;33.53;23.50;;;3.50;99.90;;;;;;5102072;28;20449;-87
2020/12/08 05:42:41;;;;;;;33.10;21.70;;;3.50;99.90;;;;;;5116149;28;22311;-87
2020/12/08 05:45:09;;;;;;;33.27;23.27;;;3.50;99.90;;;;;;5102600;28;20449;-87
2020/12/08 05:47:43;;;;;;;36.10;25.40;;;3.50;99.90;;;;;;5103380;27;20451;-87
2020/12/08 05:50:10;;;;;;;38.10;23.13;;;3.50;99.90;;;;;;5102834;28;20458;-87
2020/12/08 05:52:39;;;;;;;34.53;23.17;;;3.50;99.90;;;;;;5102605;28;20437;-86
2020/12/08 05:55:07;;;;;;;31.90;23.13;;;3.60;99.90;;;;;;5104836;28;20512;-87
2020/12/08 05:57:33;;;;;;;28.80;21.00;;;3.50;99.90;;;;;;5116980;28;20926;-86
2020/12/08 06:00:00;;;;;;;33.90;22.80;;;3.40;99.90;;;;;;5124919;28;20471;-86
2020/12/08 06:02:30;;;;;;;34.63;22.30;;;3.40;99.90;;;;;;5129964;28;20454;-87
2020/12/08 06:04:58;;;;;;;36.13;22.57;;;3.30;99.90;;;;;;5139724;28;20530;-87
2020/12/08 06:07:28;;;;;;;34.67;25.30;;;3.40;99.90;;;;;;5115785;28;20453;-86
2020/12/08 06:10:09;;;;;;;38.50;25.70;;;3.40;99.90;;;;;;5106761;28;20488;-86
2020/12/08 06:12:36;;;;;;;34.47;22.43;;;3.50;99.90;;;;;;5093856;28;20203;-87
2020/12/08 06:15:13;;;;;;;32.40;23.27;;;3.60;99.90;;;;;;5113578;28;20479;-87
2020/12/08 06:17:44;;;;;;;34.57;23.33;;;3.50;99.90;;;;;;5113982;28;20444;-86
2020/12/08 06:20:11;;;;;;;31.47;22.33;;;3.50;99.90;;;;;;5093287;28;20515;-87
2020/12/08 06:22:38;;;;;;;30.80;20.53;;;3.50;99.90;;;;;;5105789;28;20441;-84
2020/12/08 06:25:04;;;;;;;33.37;23.27;;;3.50;99.90;;;;;;5094298;28;20502;-84
2020/12/08 06:27:31;;;;;;;38.90;21.20;;;3.50;99.90;;;;;;5095006;28;20446;-84
2020/12/08 06:29:58;;;;;;;34.13;23.53;;;3.50;99.90;;;;;;5095019;28;20466;-83
2020/12/08 06:32:26;;;;;;;34.30;23.00;;;3.60;99.90;;;;;;5096227;28;20441;-83
2020/12/08 06:35:08;;;;;;;34.40;22.90;;;3.50;99.90;;;;;;5095050;28;20494;-83
2020/12/08 06:37:35;;;;;;;33.40;22.70;;;3.50;99.90;;;;;;5095630;28;20488;-84
2020/12/08 06:40:09;;;;;;;37.50;26.17;;;3.20;99.90;;;;;;5095230;28;20475;-87
2020/12/08 06:42:35;;;;;;;42.17;27.57;;;3.20;99.90;;;;;;5093827;28;20676;-87
2020/12/08 06:45:13;;;;;;;33.03;21.45;;;3.20;99.90;;;;;;5092617;28;20446;-88
2020/12/08 06:47:40;;;;;;;37.53;25.27;;;3.10;99.90;;;;;;5105723;28;20269;-86
2020/12/08 06:50:20;;;;;;;35.07;24.20;;;3.10;99.90;;;;;;5100238;28;20469;-87
2020/12/08 06:52:54;;;;;;;35.22;22.35;;;3.10;99.90;;;;;;5092571;28;20481;-88
2020/12/08 06:55:21;;;;;;;32.40;21.50;;;3.00;99.90;;;;;;5094010;28;20224;-87
2020/12/08 06:57:47;;;;;;;39.60;24.30;;;2.90;99.90;;;;;;5092717;28;20475;-88
2020/12/08 07:00:14;;;;;;;34.70;22.40;;;2.80;99.90;;;;;;5112431;28;20472;-87
2020/12/08 07:02:49;;;;;;;36.38;23.55;;;2.90;99.90;;;;;;5113663;28;20451;-87
2020/12/08 07:05:20;;;;;;;42.70;26.33;;;2.80;99.90;;;;;;5098283;28;20195;-87
2020/12/08 07:07:47;;;;;;;37.85;24.48;;;2.70;99.90;;;;;;5100617;28;20276;-87
2020/12/08 07:10:14;;;;;;;38.07;23.80;;;2.60;99.90;;;;;;5092788;28;20231;-87
2020/12/08 07:12:42;;;;;;;34.70;22.67;;;2.70;99.90;;;;;;5092873;28;20527;-87
2020/12/08 07:15:14;;;;;;;37.37;25.30;;;2.70;99.90;;;;;;5092074;28;20487;-87
2020/12/08 07:17:40;;;;;;;40.07;25.20;;;2.70;99.90;;;;;;5120714;27;20428;-86
2020/12/08 07:20:06;;;;;;;41.92;25.75;;;2.70;99.90;;;;;;5122007;27;20465;-86
2020/12/08 07:22:43;;;;;;;32.90;22.70;;;2.90;99.90;;;;;;5122898;27;20198;-87
2020/12/08 07:25:11;;;;;;;42.00;25.50;;;2.90;99.90;;;;;;5122272;27;20443;-87
2020/12/08 07:27:43;;;;;;;35.80;25.20;;;3.00;99.90;;;;;;5122736;27;20201;-87
2020/12/08 07:30:11;;;;;;;35.90;23.50;;;3.10;99.90;;;;;;5120188;28;20460;-88
2020/12/08 07:32:37;;;;;;;42.17;25.67;;;3.10;99.90;;;;;;5122667;27;20437;-87
2020/12/08 07:35:04;;;;;;;33.85;23.70;;;3.10;99.90;;;;;;5121681;27;20237;-87
2020/12/08 07:37:37;;;;;;;39.50;24.73;;;3.10;99.90;;;;;;5125334;27;20216;-87
2020/12/08 07:40:07;;;;;;;40.87;25.30;;;3.10;99.90;;;;;;5128424;27;20500;-87
2020/12/08 07:42:34;;;;;;;35.58;22.95;;;3.10;99.90;;;;;;5122649;27;20451;-87
2020/12/08 07:45:01;;;;;;;40.00;26.33;;;3.20;99.90;;;;;;5120120;27;20197;-87
2020/12/08 07:47:27;;;;;;;38.63;24.97;;;3.30;99.90;;;;;;5123230;27;20440;-87
2020/12/08 07:49:53;;;;;;;41.80;25.63;;;3.40;99.90;;;;;;5116765;28;20468;-88
2020/12/08 07:52:19;;;;;;;37.10;25.17;;;3.40;99.90;;;;;;5130907;27;20472;-89
2020/12/08 07:54:45;;;;;;;37.17;24.33;;;3.50;99.90;;;;;;5118890;28;21027;-87
2020/12/08 07:57:12;;;;;;;36.90;23.97;;;3.60;99.90;;;;;;5132688;27;20435;-89
2020/12/08 07:59:38;;;;;;;39.80;25.70;;;3.60;99.90;;;;;;5123367;27;20471;-88
2020/12/08 08:02:05;;;;;;;37.07;24.57;;;3.60;99.90;;;;;;5125393;28;20447;-86
2020/12/08 08:04:31;;;;;;;36.10;25.00;;;3.60;99.90;;;;;;5125390;27;20435;-88
2020/12/08 08:06:58;;;;;;;40.27;25.07;;;3.60;99.90;;;;;;5126076;27;20446;-87
2020/12/08 08:09:24;;;;;;;36.50;24.60;;;3.60;99.90;;;;;;5126620;27;20472;-86
2020/12/08 08:11:50;;;;;;;37.60;23.47;;;3.50;99.90;;;;;;5129047;27;20920;-86
2020/12/08 08:14:16;;;;;;;37.53;23.73;;;3.50;99.90;;;;;;5128301;27;20449;-87
2020/12/08 08:16:43;;;;;;;38.43;23.30;;;3.40;99.90;;;;;;5128201;27;20436;-86
2020/12/08 08:19:10;;;;;;;39.70;27.50;;;3.50;99.90;;;;;;5126369;27;20471;-87
2020/12/08 08:21:36;;;;;;;38.53;24.40;;;3.50;99.90;;;;;;5127469;27;20449;-87
2020/12/08 08:24:02;;;;;;;39.33;26.93;;;3.50;99.90;;;;;;5126168;27;20443;-88
2020/12/08 08:26:28;;;;;;;30.13;22.27;;;3.50;99.90;;;;;;5122048;27;20522;-88
2020/12/08 08:28:55;;;;;;;34.93;25.40;;;3.50;99.90;;;;;;5127345;27;20463;-88
2020/12/08 08:31:21;;;;;;;36.03;25.80;;;3.60;99.90;;;;;;5126357;27;20863;-88
2020/12/08 08:33:47;;;;;;;41.00;26.87;;;3.70;99.90;;;;;;5126184;27;20445;-88
2020/12/08 08:36:14;;;;;;;39.60;27.10;;;3.80;99.90;;;;;;5121251;27;20463;-88
2020/12/08 08:38:41;;;;;;;37.03;25.67;;;3.90;99.90;;;;;;5124242;27;20447;-89
2020/12/08 08:41:07;;;;;;;35.00;24.43;;;4.00;99.90;;;;;;5123114;27;20452;-88
2020/12/08 08:43:33;;;;;;;36.93;27.77;;;4.10;99.90;;;;;;5125367;27;20444;-89
2020/12/08 08:45:59;;;;;;;33.67;24.03;;;4.40;99.90;;;;;;5120677;27;20455;-91
2020/12/08 08:48:26;;;;;;;33.17;23.43;;;4.60;99.90;;;;;;5126192;27;20436;-90
2020/12/08 08:50:53;;;;;;;31.20;22.13;;;5.20;99.90;;;;;;5125363;27;20561;-88
2020/12/08 08:53:20;;;;;;;30.03;21.77;;;5.70;99.90;;;;;;5123536;27;20438;-89
2020/12/08 08:55:46;;;;;;;29.73;21.17;;;6.20;99.90;;;;;;5136403;27;20526;-88
2020/12/08 08:58:13;;;;;;;29.90;22.27;;;6.60;99.90;;;;;;5124643;27;20444;-89
2020/12/08 09:00:39;;;;;;;29.83;22.80;;;7.00;99.90;;;;;;5124118;27;20463;-89
2020/12/08 09:03:06;;;;;;;25.90;21.60;;;7.30;99.90;;;;;;5124890;27;20450;-89
2020/12/08 09:05:32;;;;;;;26.53;22.17;;;7.60;99.90;;;;;;5124656;27;20434;-87
2020/12/08 09:07:58;;;;;;;30.30;23.07;;;7.50;99.90;;;;;;5120145;27;20464;-87
2020/12/08 09:10:25;;;;;;;31.27;22.90;;;7.00;99.90;;;;;;5121886;27;21028;-90
2020/12/08 09:12:51;;;;;;;32.20;24.17;;;7.30;99.90;;;;;;5127013;27;20437;-88
2020/12/08 09:15:18;;;;;;;35.10;25.40;;;7.80;99.90;;;;;;5121161;27;20484;-88
2020/12/08 09:17:44;;;;;;;33.90;24.87;;;8.00;99.90;;;;;;5121999;27;20483;-88
2020/12/08 09:20:10;;;;;;;33.93;23.00;;;8.20;99.90;;;;;;5124439;27;20453;-90
2020/12/08 09:22:37;;;;;;;34.73;25.27;;;8.00;99.90;;;;;;5124075;27;20450;-89
2020/12/08 09:25:03;;;;;;;32.23;23.30;;;7.80;99.90;;;;;;5124408;27;20446;-89
2020/12/08 09:27:30;;;;;;;37.53;24.33;;;7.60;99.90;;;;;;5125462;27;20436;-88
2020/12/08 09:29:56;;;;;;;33.20;24.00;;;7.60;99.90;;;;;;5120336;27;20465;-89
2020/12/08 09:32:22;;;;;;;34.07;24.37;;;7.40;99.90;;;;;;5116923;27;20997;-88
2020/12/08 09:34:49;;;;;;;33.80;21.27;;;7.20;99.90;;;;;;5125130;27;20474;-88
2020/12/08 09:37:15;;;;;;;34.17;24.07;;;7.40;99.90;;;;;;5111568;27;20505;-90
2020/12/08 09:39:41;;;;;;;34.43;25.00;;;7.40;99.90;;;;;;5115356;27;20458;-89
2020/12/08 09:42:07;;;;;;;35.90;25.03;;;7.40;99.90;;;;;;5119968;28;20812;-89
2020/12/08 09:44:34;;;;;;;36.13;25.40;;;7.50;99.90;;;;;;5136341;27;20464;-89
2020/12/08 09:47:00;;;;;;;29.87;22.57;;;7.90;99.90;;;;;;5128395;27;20429;-90
2020/12/08 09:49:27;;;;;;;36.00;24.20;;;8.00;99.80;;;;;;5114971;28;20454;-90
2020/12/08 09:51:53;;;;;;;28.40;22.50;;;8.20;99.40;;;;;;5114863;28;20430;-89
2020/12/08 09:54:19;;;;;;;28.50;23.60;;;8.90;98.60;;;;;;5114941;28;20453;-90
2020/12/08 09:56:46;;;;;;;28.10;21.80;;;9.60;97.50;;;;;;5114443;28;20426;-90
2020/12/08 09:59:13;;;;;;;28.90;22.83;;;9.40;96.60;;;;;;5102691;28;20462;-89
2020/12/08 10:01:40;;;;;;;29.17;23.10;;;9.90;96.80;;;;;;5121755;27;20442;-89
2020/12/08 10:04:06;;;;;;;28.80;23.53;;;10.90;95.20;;;;;;5123283;27;20437;-88
2020/12/08 10:06:33;;;;;;;26.67;23.03;;;11.60;93.00;;;;;;5124110;27;20495;-89
2020/12/08 10:08:59;;;;;;;26.73;22.30;;;12.10;91.30;;;;;;5123572;27;20480;-89
2020/12/08 10:11:25;;;;;;;26.17;22.20;;;11.40;91.60;;;;;;5136103;27;20446;-89
2020/12/08 10:13:53;;;;;;;27.73;22.90;;;11.80;91.30;;;;;;5121642;27;20456;-90
2020/12/08 10:16:20;;;;;;;26.63;22.40;;;11.40;90.40;;;;;;5121706;27;20478;-89
2020/12/08 10:18:48;;;;;;;25.30;21.70;;;10.40;91.40;;;;;;5120354;27;20452;-88
2020/12/08 10:21:14;;;;;;;24.57;21.10;;;10.90;92.50;;;;;;5132492;27;20694;-87
2020/12/08 10:23:41;;;;;;;26.83;21.40;;;11.50;91.20;;;;;;5131132;27;20434;-89
2020/12/08 10:26:09;;;;;;;25.40;21.10;;;12.50;90.80;;;;;;5129490;27;20501;-86
2020/12/08 10:28:36;;;;;;;25.00;22.30;;;13.60;88.30;;;;;;5131394;27;20441;-88
2020/12/08 10:31:02;;;;;;;23.90;20.60;;;14.30;83.40;;;;;;5124562;27;20441;-89
2020/12/08 10:33:28;;;;;;;24.67;22.10;;;15.10;81.70;;;;;;5125094;27;20446;-88
2020/12/08 10:35:55;;;;;;;24.50;21.90;;;16.20;77.80;;;;;;5153936;27;20529;-89
2020/12/08 10:38:21;;;;;;;25.10;22.50;;;16.30;74.20;;;;;;5132508;27;20444;-88
2020/12/08 10:40:47;;;;;;;23.63;21.20;;;16.90;72.20;;;;;;5114792;27;20442;-88
2020/12/08 10:43:14;;;;;;;25.00;22.60;;;16.60;69.50;;;;;;5120807;27;20445;-89
2020/12/08 10:45:40;;;;;;;24.47;22.07;;;15.70;73.70;;;;;;5121750;27;20426;-90
2020/12/08 10:48:06;;;;;;;25.33;22.60;;;16.20;70.00;;;;;;5119519;27;20530;-89
2020/12/08 10:50:32;;;;;;;24.20;21.90;;;16.60;69.50;;;;;;5123518;27;20725;-90
2020/12/08 10:52:59;;;;;;;24.40;22.00;;;18.00;65.60;;;;;;5122927;27;20439;-88
2020/12/08 10:55:25;;;;;;;24.63;22.10;;;19.00;61.10;;;;;;5122051;27;20469;-88
2020/12/08 10:57:52;;;;;;;25.33;22.93;;;18.60;60.70;;;;;;5122059;27;20456;-89
2020/12/08 11:00:18;;;;;;;23.47;21.17;;;19.70;58.70;;;;;;5120155;27;20457;-89
2020/12/08 11:02:46;;;;;;;23.27;21.10;;;20.30;59.50;;;;;;5122788;27;20474;-90
2020/12/08 11:05:12;;;;;;;24.77;22.30;;;21.50;55.30;;;;;;5119623;27;20969;-88
2020/12/08 11:07:38;;;;;;;22.50;20.30;;;20.40;56.20;;;;;;5123881;27;20823;-89
2020/12/08 11:10:05;;;;;;;23.47;21.00;;;19.80;54.70;;;;;;5118228;27;20457;-91
2020/12/08 11:12:31;;;;;;;23.93;21.43;;;19.30;55.80;;;;;;5122492;27;20523;-89
2020/12/08 11:14:57;;;;;;;23.67;21.30;;;20.20;55.30;;;;;;5123811;27;20426;-89
2020/12/08 11:17:23;;;;;;;24.57;22.27;;;20.50;54.10;;;;;;5121673;27;20461;-88
2020/12/08 11:19:50;;;;;;;26.40;23.90;;;20.40;53.80;;;;;;5116850;28;20457;-89
2020/12/08 11:22:16;;;;;;;23.93;21.73;;;19.90;53.90;;;;;;5116160;27;20953;-88
2020/12/08 11:24:42;;;;;;;23.50;21.20;;;20.00;53.80;;;;;;5117989;27;20452;-87
2020/12/08 11:27:14;;;;;;;25.97;23.57;;;19.70;54.80;;;;;;5114010;27;20449;-87
2020/12/08 11:29:40;;;;;;;23.63;21.37;;;19.40;55.60;;;;;;5128015;28;21055;-87
2020/12/08 11:32:07;;;;;;;23.23;20.87;;;18.50;55.40;;;;;;5120566;28;20434;-87
2020/12/08 11:34:33;;;;;;;24.30;21.77;;;17.80;55.80;;;;;;5120709;27;20432;-87
2020/12/08 11:36:59;;;;;;;22.67;20.47;;;17.30;57.00;;;;;;5121764;27;20437;-87
2020/12/08 11:39:25;;;;;;;23.53;21.20;;;16.40;57.90;;;;;;5122485;27;20457;-90
2020/12/08 11:41:52;;;;;;;23.50;21.20;;;15.60;59.30;;;;;;5127487;27;20832;-90
2020/12/08 11:44:19;;;;;;;22.60;20.20;;;15.40;61.40;;;;;;5126172;27;20435;-89
2020/12/08 11:46:49;;;;;;;20.77;18.73;;;15.40;61.70;;;;;;5122821;27;20684;-90
2020/12/08 11:49:15;;;;;;;21.90;19.60;;;15.90;61.60;;;;;;5121697;27;20492;-89
2020/12/08 11:51:42;;;;;;;22.13;19.93;;;16.50;59.90;;;;;;5128130;27;20442;-90
2020/12/08 11:54:08;;;;;;;19.10;17.20;;;16.60;58.70;;;;;;5123742;27;20841;-87
2020/12/08 11:56:34;;;;;;;19.97;17.97;;;16.60;57.90;;;;;;5126498;27;20429;-86
2020/12/08 11:59:00;;;;;;;19.00;17.00;;;16.50;58.70;;;;;;5125164;27;20522;-87
2020/12/08 12:01:27;;;;;;;24.63;17.87;;;16.10;58.30;;;;;;5124052;27;20826;-87
2020/12/08 12:03:54;;;;;;;19.80;17.83;;;16.30;58.40;;;;;;5126543;27;20609;-88
2020/12/08 12:06:20;;;;;;;19.70;17.77;;;16.60;58.40;;;;;;5122512;27;20480;-88
2020/12/08 12:08:46;;;;;;;18.93;16.93;;;16.40;58.30;;;;;;5124825;27;20476;-88
2020/12/08 12:11:12;;;;;;;18.97;17.07;;;16.40;57.90;;;;;;5126032;27;20476;-88
2020/12/08 12:13:38;;;;;;;21.47;19.20;;;16.60;56.80;;;;;;5123534;27;20457;-87
2020/12/08 12:16:04;;;;;;;20.00;17.90;;;16.80;57.40;;;;;;5124786;27;20444;-88
2020/12/08 12:18:32;;;;;;;20.07;17.97;;;17.10;56.50;;;;;;5125822;27;20445;-87
2020/12/08 12:20:58;;;;;;;21.70;19.37;;;16.50;56.20;;;;;;5126466;27;20492;-87
2020/12/08 12:23:24;;;;;;;20.60;18.53;;;15.10;58.10;;;;;;5128483;27;20466;-89
2020/12/08 12:25:50;;;;;;;22.23;18.50;;;14.50;60.50;;;;;;5124434;27;20479;-88
2020/12/08 12:28:16;;;;;;;20.00;18.00;;;13.90;60.80;;;;;;5122925;27;20496;-89
2020/12/08 12:30:43;;;;;;;20.17;18.07;;;13.30;63.50;;;;;;5123282;27;20983;-87
2020/12/08 12:33:09;;;;;;;22.67;18.57;;;12.80;65.50;;;;;;5126254;27;20457;-86